Latest Weather Observations for Blackwater Airport

IDQ60801

Issued at 10:05 am EST Tuesday 29 July 2014 (issued every 30 minutes, with the page automatically refreshed every 10 minutes)

About weather observations | Map of weather stations | Latest weather observations for QLD | Other Formats
Station Details ID: 035134 Name: BLACKWATER AIRPORT Lat: -23.60 Lon: 148.81 Height: 192.95 m
Data from the previous 72 hours. | See also: Recent months at Blackwater Airport
Date/Time
EST
Temp
°C
App
Temp
°C
Dew
Point
Rel
Hum
%
Delta-T
°C
Wind Press
QNH
hPa
Press
MSL
hPa
Rain
since 9 am
mm
Dir
 
Spd
km/h
Gust
km/h
Spd
kts
Gust
kts
29/10:00am 20.6 18.6 12.8 61 4.4 N 15 24 8 13 1023.6 1023.4 0.0
29/09:30am 19.6 18.1 13.1 66 3.7 N 13 28 7 15 1023.9 - 0.0
29/09:00am 18.2 16.9 12.6 70 3.1 N 11 19 6 10 1024.0 1023.8 0.0
29/08:30am 16.9 16.6 12.8 77 2.3 ENE 6 9 3 5 1024.1 - 0.0
29/08:00am 14.0 14.0 12.4 90 0.9 SW 4 6 2 3 1024.2 1024.0 0.0
29/07:30am 10.7 9.0 9.9 95 0.4 SW 9 13 5 7 1023.9 - 0.0
29/07:00am 8.7 8.2 7.9 95 0.4 CALM 0 0 0 0 1023.5 1023.3 0.0
29/06:30am 8.5 7.9 7.4 93 0.5 CALM 0 0 0 0 1023.2 - 0.0
29/06:00am 9.2 8.7 8.0 92 0.6 CALM 0 0 0 0 1022.8 1022.6 0.0
29/05:30am 10.5 9.6 9.3 92 0.6 ENE 4 7 2 4 1022.6 - 0.0
29/05:00am 12.0 10.6 10.9 93 0.6 ENE 9 11 5 6 1022.2 1021.9 0.0
29/04:30am 12.3 10.9 11.0 92 0.7 ENE 9 11 5 6 1021.9 - 0.0
29/04:00am 12.3 10.5 10.9 91 0.7 E 11 13 6 7 1021.7 1021.4 0.0
29/03:30am 12.4 10.6 11.0 91 0.7 E 11 13 6 7 1021.6 - 0.0
29/03:00am 12.4 10.6 10.8 90 0.8 E 11 11 6 6 1021.5 1021.2 0.0
29/02:30am 12.3 10.5 10.7 90 0.8 ENE 11 13 6 7 1021.4 - 0.0
29/02:00am 12.5 11.0 10.6 88 1.0 ENE 9 11 5 6 1021.5 1021.2 0.0
29/01:30am 12.6 10.6 10.1 85 1.3 ENE 11 13 6 7 1021.6 - 0.0
29/01:00am 12.7 10.7 10.2 85 1.3 ENE 11 13 6 7 1021.8 1021.5 0.0
29/12:30am 12.8 10.7 9.8 82 1.5 ENE 11 13 6 7 1021.9 - 0.0
29/12:00am 12.7 10.7 8.8 77 2.0 ENE 9 11 5 6 1021.9 1021.6 0.0
 
Date/Time
EST
Temp
°C
App
Temp
°C
Dew
Point
Rel
Hum
%
Delta-T
°C
Wind Press
QNH
hPa
Press
MSL
hPa
Rain
since 9 am
mm
Dir
 
Spd
km/h
Gust
km/h
Spd
kts
Gust
kts
28/11:30pm 13.4 11.1 9.1 75 2.2 ENE 11 15 6 8 1022.1 - 0.0
28/11:00pm 13.0 10.5 8.1 72 2.4 ENE 11 13 6 7 1022.1 1021.8 0.0
28/10:30pm 11.2 7.7 3.7 60 3.4 NNE 11 13 6 7 1021.8 - 0.0
28/10:00pm 10.1 7.1 0.7 52 3.9 E 6 17 3 9 1021.8 1021.5 0.0
28/09:30pm 12.6 9.6 2.2 49 4.6 S 7 9 4 5 1021.5 - 0.0
28/09:00pm 13.1 10.2 1.5 45 5.0 S 6 7 3 4 1021.4 1021.1 0.0
28/08:30pm 14.9 11.7 2.8 44 5.5 S 9 11 5 6 1021.3 - 0.0
28/08:00pm 16.2 14.6 2.2 39 6.3 CALM 0 0 0 0 1021.1 1020.8 0.0
28/07:30pm 16.8 15.3 2.8 39 6.4 CALM 0 0 0 0 1021.0 - 0.0
28/07:00pm 19.1 16.3 3.3 35 7.5 NW 7 9 4 5 1020.6 1020.3 0.0
28/06:30pm 17.4 14.0 1.8 35 7.1 N 9 13 5 7 1020.3 - 0.0
28/06:00pm 19.5 15.9 2.8 33 7.8 NNE 11 13 6 7 1020.0 1019.7 0.0
28/05:30pm 22.4 18.7 2.5 27 9.5 NNE 11 13 6 7 1019.7 - 0.0
28/05:00pm 25.6 23.6 2.3 22 11.3 NE 2 7 1 4 1019.4 1019.2 0.0
28/04:30pm 25.4 23.0 2.2 22 11.3 SSE 4 9 2 5 1019.1 - 0.0
28/04:00pm 25.4 22.1 2.2 22 11.2 SE 9 15 5 8 1019.0 1018.8 0.0
28/03:30pm 25.8 23.1 3.7 24 11.0 SE 7 13 4 7 1019.1 - 0.0
28/03:00pm 25.5 22.4 3.5 24 10.9 ESE 9 17 5 9 1019.3 1019.1 0.0
28/02:30pm 24.7 21.2 3.4 25 10.5 SE 11 15 6 8 1019.8 - 0.0
28/02:00pm 24.7 21.2 3.4 25 10.5 WSW 11 17 6 9 1020.2 1019.9 0.0
28/01:30pm 25.1 21.6 3.7 25 10.6 S 11 17 6 9 1020.7 - 0.0
28/01:00pm 25.6 23.0 4.1 25 10.8 SSW 7 13 4 7 1021.3 1021.0 0.0
28/12:30pm 24.4 22.0 4.2 27 10.1 NNE 6 9 3 5 1022.1 - 0.0
28/12:00pm 23.5 20.6 4.5 29 9.5 ESE 9 15 5 8 1022.9 1022.7 0.0
28/11:30am 23.4 20.5 4.4 29 9.5 E 9 17 5 9 1023.5 - 0.0
28/11:00am 23.7 21.1 6.0 32 9.1 N 9 20 5 11 1024.0 1023.8 0.0
28/10:30am 22.2 18.9 4.7 32 8.7 NNE 11 15 6 8 1024.4 - 0.0
28/10:00am 21.7 18.8 4.7 33 8.4 NNE 9 15 5 8 1024.7 1024.5 0.0
28/09:30am 20.0 17.6 2.4 31 8.2 WNW 4 7 2 4 1024.8 - 0.0
28/09:00am 18.9 16.1 2.3 33 7.6 WNW 6 7 3 4 1024.5 1024.3 0.0
28/08:30am 16.4 14.2 3.1 41 6.1 SW 4 9 2 5 1024.1 - 0.0
28/08:00am 13.2 11.8 3.3 51 4.4 CALM 0 0 0 0 1023.9 1023.7 0.0
28/07:30am 9.2 7.7 3.0 65 2.7 CALM 0 4 0 2 1023.8 - 0.0
28/07:00am 6.7 3.7 1.8 71 2.0 S 7 9 4 5 1023.5 1023.3 0.0
28/06:30am 6.2 3.1 1.1 70 2.0 S 7 13 4 7 1023.1 - 0.0
28/06:00am 6.5 2.6 1.2 69 2.1 SSW 11 11 6 6 1022.8 1022.6 0.0
28/05:30am 7.8 3.7 2.1 67 2.4 SSW 13 15 7 8 1022.6 - 0.0
28/05:00am 7.9 3.8 2.2 67 2.4 SW 13 13 7 7 1022.6 1022.4 0.0
28/04:30am 8.4 5.4 2.2 65 2.6 SW 7 9 4 5 1022.4 - 0.0
28/04:00am 7.6 5.4 1.2 64 2.6 W 2 7 1 4 1022.3 1022.0 0.0
28/03:30am 8.5 5.4 1.6 62 2.9 W 7 9 4 5 1022.5 - 0.0
28/03:00am 10.1 6.9 2.9 61 3.1 NW 9 11 5 6 1022.4 1022.2 0.0
28/02:30am 10.2 6.5 2.6 59 3.3 NNW 11 20 6 11 1022.5 - 0.0
28/02:00am 10.1 6.0 2.2 58 3.4 SSW 13 15 7 8 1022.2 1021.9 0.0
28/01:30am 10.2 6.8 2.1 57 3.5 SW 9 11 5 6 1022.5 - 0.0
28/01:00am 11.3 8.1 2.9 56 3.7 SSW 9 11 5 6 1022.6 1022.4 0.0
28/12:30am 12.2 9.3 2.6 52 4.2 SSW 7 9 4 5 1022.7 - 0.0
28/12:00am 14.2 10.6 2.8 46 5.1 S 11 13 6 7 1022.8 1022.6 0.0
 
Date/Time
EST
Temp
°C
App
Temp
°C
Dew
Point
Rel
Hum
%
Delta-T
°C
Wind Press
QNH
hPa
Press
MSL
hPa
Rain
since 9 am
mm
Dir
 
Spd
km/h
Gust
km/h
Spd
kts
Gust
kts
27/11:30pm 14.7 12.1 4.1 49 4.9 SE 7 11 4 6 1023.0 - 0.0
27/11:00pm 13.4 10.9 3.8 52 4.4 SSW 6 9 3 5 1023.1 1022.9 0.0
27/10:30pm 14.5 11.8 3.6 48 5.0 SSW 7 9 4 5 1023.2 - 0.0
27/10:00pm 15.5 12.9 4.2 47 5.3 SE 7 11 4 6 1023.1 1022.9 0.0
27/09:30pm 16.4 12.6 4.1 44 5.8 SSE 13 17 7 9 1022.9 - 0.0
27/09:00pm 16.9 13.0 3.6 41 6.2 SSE 13 15 7 8 1022.8 1022.6 0.0
27/08:30pm 17.2 14.1 3.5 40 6.4 E 9 15 5 8 1022.5 - 0.0
27/08:00pm 18.2 14.2 2.9 36 7.1 SE 13 17 7 9 1022.3 1022.0 0.0
27/07:30pm 20.0 15.8 3.7 34 7.8 SE 15 19 8 10 1022.0 - 0.0
27/07:00pm 19.5 14.9 3.6 35 7.6 SSE 17 17 9 9 1021.7 1021.4 0.0
27/06:30pm 19.9 15.7 3.6 34 7.8 SSE 15 17 8 9 1021.4 - 0.0
27/06:00pm 21.9 17.4 4.0 31 8.7 SSE 17 19 9 10 1021.0 1020.7 0.0
27/05:30pm 23.7 19.8 3.6 27 9.9 SSE 13 17 7 9 1020.8 - 0.0
27/05:00pm 25.3 20.6 3.3 24 10.8 S 17 24 9 13 1020.6 1020.3 0.0
27/04:30pm 25.9 21.9 2.6 22 11.4 SSW 13 19 7 10 1020.6 - 0.0
27/04:00pm 26.6 22.8 3.8 23 11.4 S 13 19 7 10 1020.5 1020.2 0.0
27/03:30pm 26.3 22.2 4.1 24 11.2 S 15 24 8 13 1020.5 - 0.0
27/03:00pm 27.0 22.1 5.3 25 11.2 SSW 20 33 11 18 1020.5 1020.2 0.0
27/02:30pm 26.2 21.9 5.2 26 10.8 S 17 24 9 13 1020.7 - 0.0
27/02:00pm 26.0 22.0 6.6 29 10.2 SSE 17 26 9 14 1021.0 1020.7 0.0
27/01:30pm 26.2 23.1 7.3 30 10.1 SSE 13 22 7 12 1021.5 - 0.0
27/01:00pm 25.6 21.5 6.3 29 10.1 SSE 17 24 9 13 1022.0 1021.7 0.0
27/12:30pm 25.9 24.1 9.3 35 9.2 ESE 9 20 5 11 1022.7 - 0.0
27/12:00pm 24.6 22.8 9.3 38 8.4 SE 9 22 5 12 1023.4 1023.2 0.0
27/11:30am 25.0 23.9 11.9 44 7.5 ESE 9 13 5 7 1023.9 - 0.0
27/11:00am 22.9 20.7 10.7 46 6.8 SE 13 20 7 11 1024.5 1024.3 0.0
27/10:30am 23.0 20.9 11.1 47 6.7 SSE 13 24 7 13 1025.0 - 0.0
27/10:00am 21.6 20.5 11.9 54 5.5 S 9 19 5 10 1025.2 1024.9 0.0
27/09:30am 20.9 21.0 12.8 60 4.6 ESE 4 9 2 5 1025.3 - 0.0
27/09:00am 19.0 19.3 13.4 70 3.2 S 4 7 2 4 1025.1 1024.8 0.0
27/08:30am 17.3 17.0 13.4 78 2.2 S 7 11 4 6 1024.8 - 0.0
27/08:00am 14.8 14.9 14.0 95 0.5 S 6 7 3 4 1024.5 1024.3 0.0
27/07:30am 11.5 10.6 11.2 98 0.2 SSW 7 9 4 5 1024.4 - 0.0
27/07:00am 8.9 8.5 8.3 96 0.3 CALM 0 2 0 1 1024.3 1024.1 0.0
27/06:30am 8.7 7.1 7.9 95 0.4 NNE 6 7 3 4 1024.1 - 0.0
27/06:00am 10.0 9.1 9.2 95 0.4 S 4 7 2 4 1023.7 1023.5 0.0
27/05:30am 10.9 8.6 10.3 96 0.3 S 13 15 7 8 1023.5 - 0.0
27/05:00am 10.0 7.4 9.2 95 0.4 SSW 13 13 7 7 1023.4 1023.2 0.0
27/04:30am 10.1 8.8 9.2 94 0.5 S 6 7 3 4 1023.2 - 0.0
27/04:00am 10.2 8.9 9.3 94 0.5 S 6 9 3 5 1023.1 1022.9 0.0
27/03:30am 10.0 8.1 9.1 94 0.4 SW 9 9 5 5 1023.3 - 0.0
27/03:00am 10.4 10.2 9.2 92 0.6 CALM 0 0 0 0 1023.5 1023.3 0.0
27/02:30am 10.8 9.6 9.7 93 0.6 SSE 6 7 3 4 1023.7 - 0.0
27/02:00am 10.9 9.2 9.8 93 0.6 SSW 9 11 5 6 1024.0 1023.8 0.0
27/01:30am 11.3 9.3 10.2 93 0.6 SSW 11 15 6 8 1023.9 - 0.0
27/01:00am 12.2 11.1 10.6 90 0.8 S 7 9 4 5 1024.4 1024.2 0.0
27/12:30am 12.6 11.3 11.2 91 0.7 S 9 11 5 6 1025.1 - 0.0
27/12:00am 13.4 12.0 10.9 85 1.3 S 9 11 5 6 1025.3 1025.0 0.0
 
Date/Time
EST
Temp
°C
App
Temp
°C
Dew
Point
Rel
Hum
%
Delta-T
°C
Wind Press
QNH
hPa
Press
MSL
hPa
Rain
since 9 am
mm
Dir
 
Spd
km/h
Gust
km/h
Spd
kts
Gust
kts
26/11:30pm 13.6 11.2 11.3 86 1.2 S 15 15 8 8 1025.5 - 0.0
26/11:00pm 14.3 12.9 12.2 87 1.1 S 11 13 6 7 1025.6 1025.3 0.0
26/10:30pm 14.4 12.5 11.7 84 1.5 SSW 13 15 7 8 1025.7 - 0.0
26/10:00pm 15.1 13.6 11.9 81 1.7 SSW 11 13 6 7 1025.6 1025.3 0.0
26/09:30pm 16.1 16.4 12.3 78 2.1 SE 2 7 1 4 1025.6 - 0.0
26/09:00pm 17.5 16.8 13.2 76 2.4 E 9 11 5 6 1025.5 1025.2 0.0
26/08:30pm 18.2 17.3 13.7 75 2.6 E 11 13 6 7 1025.4 - 0.0
26/08:00pm 17.8 16.8 13.5 76 2.4 E 11 13 6 7 1025.3 1025.0 0.0
26/07:30pm 17.9 17.3 13.6 76 2.5 E 9 11 5 6 1025.3 - 0.0
26/07:00pm 18.1 17.8 13.4 74 2.7 E 7 11 4 6 1025.2 1024.9 0.0
26/06:30pm 18.4 17.7 13.3 72 2.9 E 9 13 5 7 1024.6 - 0.0
26/06:00pm 19.4 18.9 13.8 70 3.2 ESE 9 13 5 7 1024.6 1024.4 0.0
26/05:30pm 19.5 18.8 13.2 67 3.6 E 9 11 5 6 1024.2 - 0.0
26/05:00pm 20.2 19.6 13.4 65 3.9 E 9 13 5 7 1024.2 1024.0 0.0
26/04:30pm 20.5 19.5 13.5 64 4.0 NE 11 13 6 7 1024.0 - 0.0
26/04:00pm 20.7 19.7 13.4 63 4.2 ENE 11 15 6 8 1024.0 1023.8 0.0
26/03:30pm 20.7 21.8 13.4 63 4.2 CALM 0 6 0 3 1023.9 - 0.0
26/03:00pm 20.9 20.3 13.4 62 4.3 ENE 9 11 5 6 1023.7 1023.5 0.0
26/02:30pm 21.0 21.7 13.4 62 4.4 ENE 2 7 1 4 1023.8 - 0.0
26/02:00pm 20.7 20.1 13.4 63 4.2 ENE 9 13 5 7 1023.6 1023.4 0.0
26/01:30pm 20.6 20.0 13.6 64 4.1 NNE 9 13 5 7 1023.8 - 0.0
26/01:00pm 20.6 20.5 13.8 65 3.9 E 7 15 4 8 1024.5 1024.3 0.0
26/12:30pm 20.3 20.2 14.0 67 3.7 ENE 7 11 4 6 1025.1 - 0.0
26/12:00pm 20.1 21.0 14.0 68 3.5 SE 2 7 1 4 1025.7 1025.4 0.0
26/11:30am 20.1 19.5 14.5 70 3.3 E 11 17 6 9 1025.7 - 0.0
26/11:00am 19.7 19.3 14.1 70 3.2 E 9 11 5 6 1026.2 1025.9 0.0
26/10:30am 19.3 18.9 14.1 72 3.0 ESE 9 15 5 8 1026.3 - 0.0

Other Formats:

Comma delimited format used in spreadsheet applications
http://www.bom.gov.au/fwo/IDQ60801/IDQ60801.94398.axf

JavaScript Object Notation format (JSON) in row-major order
http://www.bom.gov.au/fwo/IDQ60801/IDQ60801.94398.json